Time;durP1;ratioP1;P1;durP2;ratioP2;P2;SDS_P1;SDS_P2;PMS_P1;PMS_P2;Temp;Humidity;BMP_temperature;BMP_pressure;BME280_temperature;BME280_humidity;BME280_pressure;Samples;Min_cycle;Max_cycle;Signal;HPM_P1;HPM_P2
2021/11/17 02:26:24;;;;;;;21.25;14.07;;;;;;;;;;5044299;28;20226;-62
2021/11/17 02:28:58;;;;;;;26.27;15.35;;;;;;;;;;5044792;28;20220;-62
2021/11/17 02:31:41;;;;;;;24.08;14.32;;;;;;;;;;5034908;28;20193;-62
2021/11/17 02:34:26;;;;;;;27.67;16.33;;;;;;;;;;5034935;28;20232;-62
2021/11/17 02:37:06;;;;;;;21.88;14.00;;;;;;;;;;5036429;28;20209;-62
2021/11/17 02:39:49;;;;;;;24.55;15.45;;;;;;;;;;5039608;28;20207;-61
2021/11/17 02:42:26;;;;;;;24.20;14.73;;;;;;;;;;5039687;28;20189;-62
2021/11/17 02:44:59;;;;;;;22.25;12.98;;;;;;;;;;5040244;28;20220;-61
2021/11/17 02:47:33;;;;;;;23.67;15.00;;;;;;;;;;5046126;28;20218;-61
2021/11/17 02:50:08;;;;;;;26.27;15.45;;;;;;;;;;5044526;28;20573;-62
2021/11/17 02:52:46;;;;;;;24.25;14.32;;;;;;;;;;5035731;28;20200;-61
2021/11/17 02:55:20;;;;;;;22.55;13.23;;;;;;;;;;5035409;28;20200;-61
2021/11/17 02:58:01;;;;;;;21.15;13.35;;;;;;;;;;5037534;28;20612;-61
2021/11/17 03:00:45;;;;;;;21.75;12.77;;;;;;;;;;5037984;28;20197;-62
2021/11/17 03:03:21;;;;;;;19.35;12.70;;;;;;;;;;5034319;28;20600;-62
2021/11/17 03:05:58;;;;;;;20.58;13.10;;;;;;;;;;5035176;28;20190;-62
2021/11/17 03:08:33;;;;;;;18.30;12.38;;;;;;;;;;5034222;28;20192;-62
2021/11/17 03:11:16;;;;;;;21.48;12.60;;;;;;;;;;5034496;28;20533;-63
2021/11/17 03:13:55;;;;;;;20.17;11.90;;;;;;;;;;5038040;28;20237;-62
2021/11/17 03:16:38;;;;;;;19.85;10.98;;;;;;;;;;5035224;28;20193;-62
2021/11/17 03:19:14;;;;;;;17.67;11.25;;;;;;;;;;5034340;28;20190;-61
2021/11/17 03:21:48;;;;;;;15.57;9.77;;;;;;;;;;5034112;28;20193;-63
2021/11/17 03:24:27;;;;;;;15.90;10.70;;;;;;;;;;5034400;28;20279;-62
2021/11/17 03:27:01;;;;;;;17.25;10.65;;;;;;;;;;5033955;28;20665;-62
2021/11/17 03:29:42;;;;;;;18.20;10.88;;;;;;;;;;5034310;28;20197;-63
2021/11/17 03:32:19;;;;;;;12.82;8.70;;;;;;;;;;5034157;28;20190;-59
2021/11/17 03:34:56;;;;;;;15.80;9.85;;;;;;;;;;5033913;28;20245;-63
2021/11/17 03:37:33;;;;;;;18.67;10.55;;;;;;;;;;5033861;28;20192;-62
2021/11/17 03:40:16;;;;;;;19.95;11.95;;;;;;;;;;5033615;28;20632;-62
2021/11/17 03:42:54;;;;;;;16.00;9.60;;;;;;;;;;5033793;28;20189;-62
2021/11/17 03:45:39;;;;;;;17.02;11.48;;;;;;;;;;5033975;28;20190;-61
2021/11/17 03:48:13;;;;;;;18.88;10.88;;;;;;;;;;5033673;28;20200;-63
2021/11/17 03:50:49;;;;;;;20.15;11.95;;;;;;;;;;5033574;28;20184;-62
2021/11/17 03:53:23;;;;;;;19.27;11.13;;;;;;;;;;5033554;28;20240;-62
2021/11/17 03:56:02;;;;;;;18.13;11.23;;;;;;;;;;5033323;28;20199;-62
2021/11/17 03:58:34;;;;;;;16.88;12.10;;;;;;;;;;5033283;28;20193;-61
2021/11/17 04:01:20;;;;;;;20.45;11.52;;;;;;;;;;5033237;28;20200;-62
2021/11/17 04:03:59;;;;;;;18.10;11.75;;;;;;;;;;5033210;28;20217;-62
2021/11/17 04:09:01;;;;;;;16.15;10.57;;;;;;;;;;5091391;27;21065;-62
2021/11/17 04:11:43;;;;;;;19.77;12.45;;;;;;;;;;5090863;28;20187;-62
2021/11/17 04:14:15;;;;;;;18.83;12.10;;;;;;;;;;5090680;28;20220;-62
2021/11/17 04:16:48;;;;;;;21.92;12.40;;;;;;;;;;5090853;28;20183;-62
2021/11/17 04:19:22;;;;;;;18.92;10.70;;;;;;;;;;5090896;28;20185;-62
2021/11/17 04:22:05;;;;;;;21.02;11.98;;;;;;;;;;5090725;28;20556;-62
2021/11/17 04:24:40;;;;;;;20.02;11.27;;;;;;;;;;5086197;22;20566;-56
2021/11/17 04:27:14;;;;;;;18.08;10.75;;;;;;;;;;5050159;28;20208;-55
2021/11/17 04:29:52;;;;;;;15.07;9.50;;;;;;;;;;5050290;28;20209;-56
2021/11/17 04:32:28;;;;;;;17.20;10.30;;;;;;;;;;5050057;28;20197;-57
2021/11/17 04:35:10;;;;;;;17.83;10.50;;;;;;;;;;5049637;28;20222;-57
2021/11/17 04:37:50;;;;;;;18.50;10.93;;;;;;;;;;5047571;28;20202;-58
2021/11/17 04:40:38;;;;;;;19.80;11.00;;;;;;;;;;5050442;28;20187;-57
2021/11/17 04:43:13;;;;;;;15.07;10.13;;;;;;;;;;5045199;28;20202;-56
2021/11/17 04:45:46;;;;;;;20.95;10.07;;;;;;;;;;5049930;28;20189;-56
2021/11/17 04:48:29;;;;;;;21.50;11.00;;;;;;;;;;5049901;28;20209;-56
2021/11/17 04:51:03;;;;;;;19.83;10.20;;;;;;;;;;5047865;28;20276;-57
2021/11/17 04:53:40;;;;;;;16.88;9.98;;;;;;;;;;5049869;28;20221;-56
2021/11/17 04:56:23;;;;;;;16.23;9.20;;;;;;;;;;5049978;28;20186;-56
2021/11/17 04:59:08;;;;;;;19.55;10.60;;;;;;;;;;5049609;28;20183;-57
2021/11/17 05:01:52;;;;;;;19.45;10.60;;;;;;;;;;5049588;28;20201;-57
2021/11/17 05:04:30;;;;;;;18.88;10.02;;;;;;;;;;5049185;28;20222;-56
2021/11/17 05:07:03;;;;;;;20.80;9.48;;;;;;;;;;5049598;28;20228;-55
2021/11/17 05:09:36;;;;;;;16.77;10.13;;;;;;;;;;5049345;28;20623;-57
2021/11/17 05:12:09;;;;;;;20.05;11.15;;;;;;;;;;5050553;28;20317;-55
2021/11/17 05:14:41;;;;;;;20.45;10.55;;;;;;;;;;5049573;28;20228;-55
2021/11/17 05:17:14;;;;;;;22.67;12.20;;;;;;;;;;5049642;28;20179;-55
2021/11/17 05:19:46;;;;;;;22.88;11.60;;;;;;;;;;5039331;28;20301;-55
2021/11/17 05:22:29;;;;;;;17.23;11.23;;;;;;;;;;5036668;28;20547;-55
2021/11/17 05:25:02;;;;;;;15.23;9.55;;;;;;;;;;5035697;28;20234;-57
2021/11/17 05:27:45;;;;;;;17.90;10.80;;;;;;;;;;5035866;28;20286;-55
2021/11/17 05:30:23;;;;;;;15.45;9.70;;;;;;;;;;5035871;28;20210;-56
2021/11/17 05:32:59;;;;;;;20.10;12.52;;;;;;;;;;5035579;28;20198;-56
2021/11/17 05:35:38;;;;;;;17.30;9.55;;;;;;;;;;5035767;28;20183;-56
2021/11/17 05:38:11;;;;;;;19.02;9.75;;;;;;;;;;5035647;28;20213;-56
2021/11/17 05:40:48;;;;;;;15.65;10.43;;;;;;;;;;5035261;28;20187;-56
2021/11/17 05:43:21;;;;;;;19.88;11.50;;;;;;;;;;5035948;28;20625;-56
2021/11/17 05:45:54;;;;;;;16.73;10.40;;;;;;;;;;5035223;28;20643;-56
2021/11/17 05:48:26;;;;;;;17.83;10.77;;;;;;;;;;5035332;28;20553;-57
2021/11/17 05:51:01;;;;;;;15.75;10.40;;;;;;;;;;5036059;28;20194;-57
2021/11/17 05:53:36;;;;;;;16.88;10.80;;;;;;;;;;5034941;28;20317;-56
2021/11/17 05:56:15;;;;;;;17.48;10.82;;;;;;;;;;5035091;28;20214;-56
2021/11/17 05:58:58;;;;;;;18.77;10.85;;;;;;;;;;5034555;28;20519;-55
2021/11/17 06:01:40;;;;;;;17.27;10.15;;;;;;;;;;5035437;28;20191;-57
2021/11/17 06:04:10;;;;;;;16.38;11.00;;;;;;;;;;5034767;28;20745;-57
2021/11/17 06:06:38;;;;;;;20.15;11.25;;;;;;;;;;5034854;28;20660;-56
2021/11/17 06:09:06;;;;;;;16.70;11.07;;;;;;;;;;5034711;28;20262;-56
2021/11/17 06:11:35;;;;;;;17.83;10.57;;;;;;;;;;5034723;28;20241;-56
2021/11/17 06:14:03;;;;;;;16.73;10.50;;;;;;;;;;5034639;28;20729;-56
2021/11/17 06:16:31;;;;;;;16.02;9.80;;;;;;;;;;5034632;28;20202;-57
2021/11/17 06:18:58;;;;;;;14.30;9.25;;;;;;;;;;5034951;28;20199;-56
2021/11/17 06:21:26;;;;;;;15.90;9.77;;;;;;;;;;5034473;28;20662;-56
2021/11/17 06:23:55;;;;;;;14.50;9.13;;;;;;;;;;5034945;28;20241;-56
2021/11/17 06:26:24;;;;;;;13.77;9.10;;;;;;;;;;5035048;28;20209;-57
2021/11/17 06:28:54;;;;;;;17.75;9.63;;;;;;;;;;5034394;28;20226;-56
2021/11/17 06:31:22;;;;;;;16.60;10.63;;;;;;;;;;5033675;28;20207;-57
2021/11/17 06:33:49;;;;;;;14.68;9.30;;;;;;;;;;5034265;28;20234;-57
2021/11/17 06:36:17;;;;;;;14.73;9.38;;;;;;;;;;5034599;28;20203;-57
2021/11/17 06:38:45;;;;;;;14.65;9.60;;;;;;;;;;5034251;28;20701;-56
2021/11/17 06:41:12;;;;;;;13.07;8.43;;;;;;;;;;5034420;28;20555;-55
2021/11/17 06:43:40;;;;;;;14.15;10.20;;;;;;;;;;5033870;28;20219;-56
2021/11/17 06:46:08;;;;;;;23.27;10.00;;;;;;;;;;5033995;28;20572;-56
2021/11/17 06:48:36;;;;;;;14.60;9.35;;;;;;;;;;5034165;28;20276;-57
2021/11/17 06:51:04;;;;;;;22.13;10.30;;;;;;;;;;5034212;28;20276;-56
2021/11/17 06:53:32;;;;;;;19.98;10.65;;;;;;;;;;5034062;28;20227;-56
2021/11/17 06:55:59;;;;;;;18.80;10.80;;;;;;;;;;5034037;28;20554;-56
2021/11/17 06:58:27;;;;;;;17.02;10.10;;;;;;;;;;5034066;28;20233;-56
2021/11/17 07:00:55;;;;;;;20.15;10.68;;;;;;;;;;5034200;28;20678;-56
2021/11/17 07:03:26;;;;;;;17.70;10.55;;;;;;;;;;5033708;28;20223;-56
2021/11/17 07:05:54;;;;;;;15.73;10.70;;;;;;;;;;5034150;28;20236;-57
2021/11/17 07:08:23;;;;;;;18.23;9.52;;;;;;;;;;5033680;28;20541;-56
2021/11/17 07:10:50;;;;;;;15.57;9.90;;;;;;;;;;5033779;28;20636;-57
2021/11/17 07:13:18;;;;;;;19.58;11.45;;;;;;;;;;5033755;28;20242;-56
2021/11/17 07:15:45;;;;;;;18.45;10.10;;;;;;;;;;5033626;28;20674;-57
2021/11/17 07:18:12;;;;;;;16.00;10.07;;;;;;;;;;5033870;28;20198;-55
2021/11/17 07:20:41;;;;;;;18.00;9.65;;;;;;;;;;5033587;28;20202;-57
2021/11/17 07:23:09;;;;;;;17.80;10.43;;;;;;;;;;5033193;28;20201;-57
2021/11/17 07:25:36;;;;;;;16.75;9.68;;;;;;;;;;5033576;28;20197;-58
2021/11/17 07:28:04;;;;;;;17.70;9.93;;;;;;;;;;5033370;28;20223;-57
2021/11/17 07:30:33;;;;;;;15.15;9.65;;;;;;;;;;5033433;28;20206;-57
2021/11/17 07:33:02;;;;;;;14.65;8.73;;;;;;;;;;5034047;28;20203;-58
2021/11/17 07:35:30;;;;;;;16.38;9.25;;;;;;;;;;5033515;28;20202;-57
2021/11/17 07:38:01;;;;;;;18.63;10.70;;;;;;;;;;5033073;28;20202;-57
2021/11/17 07:40:28;;;;;;;14.10;8.30;;;;;;;;;;5034004;28;20558;-57
2021/11/17 07:42:56;;;;;;;14.95;9.20;;;;;;;;;;5033158;28;20214;-57
2021/11/17 07:45:24;;;;;;;16.20;9.65;;;;;;;;;;5032975;28;20252;-56
2021/11/17 07:47:52;;;;;;;16.20;9.70;;;;;;;;;;5033125;28;20222;-57
2021/11/17 07:50:19;;;;;;;16.50;9.65;;;;;;;;;;5032829;28;20203;-58
2021/11/17 07:52:47;;;;;;;14.85;9.77;;;;;;;;;;5033293;28;20217;-58
2021/11/17 07:55:16;;;;;;;15.60;10.13;;;;;;;;;;5033162;28;20629;-56
2021/11/17 07:57:45;;;;;;;19.25;11.90;;;;;;;;;;5032721;28;20206;-56
2021/11/17 08:00:14;;;;;;;17.80;10.52;;;;;;;;;;5032917;28;20210;-57
2021/11/17 08:02:42;;;;;;;21.02;12.05;;;;;;;;;;5032633;28;20210;-55
2021/11/17 08:05:09;;;;;;;21.02;12.07;;;;;;;;;;5032479;28;20222;-57
2021/11/17 08:07:37;;;;;;;20.02;12.05;;;;;;;;;;5033067;28;20589;-58
2021/11/17 08:10:05;;;;;;;17.52;11.40;;;;;;;;;;5033090;28;20207;-57
2021/11/17 08:12:34;;;;;;;19.05;13.13;;;;;;;;;;5032696;28;20206;-57
2021/11/17 08:15:01;;;;;;;16.73;10.18;;;;;;;;;;5033195;28;20632;-57
2021/11/17 08:17:28;;;;;;;21.45;12.95;;;;;;;;;;5033047;28;20211;-55
2021/11/17 08:19:56;;;;;;;18.20;12.43;;;;;;;;;;5032760;28;20213;-56
2021/11/17 08:22:23;;;;;;;19.88;12.35;;;;;;;;;;5033168;28;20206;-57
2021/11/17 08:24:50;;;;;;;19.45;11.70;;;;;;;;;;5032624;28;20237;-56
2021/11/17 08:27:19;;;;;;;16.63;11.15;;;;;;;;;;5032687;28;20206;-56
2021/11/17 08:29:49;;;;;;;17.42;10.45;;;;;;;;;;5032417;28;20728;-56
2021/11/17 08:32:16;;;;;;;17.80;11.20;;;;;;;;;;5032794;28;20229;-55
2021/11/17 08:34:43;;;;;;;21.38;11.38;;;;;;;;;;5033033;28;20223;-56
2021/11/17 08:37:12;;;;;;;15.23;10.82;;;;;;;;;;5032809;28;20207;-57
2021/11/17 08:39:40;;;;;;;20.75;12.80;;;;;;;;;;5032764;28;20198;-56
2021/11/17 08:42:08;;;;;;;17.52;11.18;;;;;;;;;;5032819;28;20230;-56
2021/11/17 08:44:36;;;;;;;15.68;10.88;;;;;;;;;;5032966;28;20233;-56
2021/11/17 08:47:05;;;;;;;13.48;9.15;;;;;;;;;;5032684;28;20203;-56
2021/11/17 08:49:33;;;;;;;13.35;9.43;;;;;;;;;;5032615;28;20228;-56
2021/11/17 08:52:00;;;;;;;17.42;11.50;;;;;;;;;;5032480;28;20214;-55
2021/11/17 08:54:28;;;;;;;14.85;10.05;;;;;;;;;;5034340;28;20229;-55
2021/11/17 08:56:58;;;;;;;15.48;10.55;;;;;;;;;;5036825;28;20663;-56
2021/11/17 08:59:25;;;;;;;13.80;9.13;;;;;;;;;;5036589;28;20666;-56
2021/11/17 09:01:53;;;;;;;13.05;9.50;;;;;;;;;;5036724;28;20586;-56
2021/11/17 09:04:22;;;;;;;13.73;9.05;;;;;;;;;;5037800;28;20698;-56
2021/11/17 09:06:49;;;;;;;13.73;8.32;;;;;;;;;;5037329;28;20239;-56
2021/11/17 09:09:16;;;;;;;11.23;7.32;;;;;;;;;;5037011;28;20831;-56
2021/11/17 09:11:44;;;;;;;12.32;8.05;;;;;;;;;;5037340;28;20313;-55
2021/11/17 09:14:12;;;;;;;14.77;9.40;;;;;;;;;;5035921;28;20222;-55
2021/11/17 09:16:40;;;;;;;11.60;7.63;;;;;;;;;;5035848;28;20202;-55
2021/11/17 09:19:08;;;;;;;11.60;8.18;;;;;;;;;;5036153;28;20643;-55
2021/11/17 09:21:38;;;;;;;10.00;8.18;;;;;;;;;;5036197;28;20209;-54
2021/11/17 09:24:07;;;;;;;12.20;7.82;;;;;;;;;;5036360;28;20230;-55
2021/11/17 09:26:35;;;;;;;8.60;6.57;;;;;;;;;;5036335;28;20199;-56
2021/11/17 09:29:03;;;;;;;11.00;8.02;;;;;;;;;;5035711;28;20244;-55
2021/11/17 09:31:31;;;;;;;8.48;7.00;;;;;;;;;;5035517;28;20293;-55
2021/11/17 09:33:59;;;;;;;9.43;7.32;;;;;;;;;;5035774;28;20593;-56
2021/11/17 09:36:27;;;;;;;11.70;7.80;;;;;;;;;;5036146;28;20206;-57
2021/11/17 09:38:56;;;;;;;9.25;7.63;;;;;;;;;;5034868;28;20195;-57
2021/11/17 09:41:26;;;;;;;12.00;8.23;;;;;;;;;;5035652;28;20206;-56
2021/11/17 09:43:54;;;;;;;9.98;8.02;;;;;;;;;;5035509;28;20252;-56
2021/11/17 09:46:24;;;;;;;9.77;7.80;;;;;;;;;;5035278;28;20202;-56
2021/11/17 09:48:53;;;;;;;10.77;8.38;;;;;;;;;;5035158;28;20207;-56
2021/11/17 09:51:22;;;;;;;11.50;8.48;;;;;;;;;;5035232;28;20531;-56
2021/11/17 09:53:50;;;;;;;12.02;8.45;;;;;;;;;;5035539;28;20226;-55
2021/11/17 09:56:21;;;;;;;10.48;8.40;;;;;;;;;;5035382;28;20678;-56
2021/11/17 09:58:50;;;;;;;10.38;8.93;;;;;;;;;;5035512;28;20575;-56
2021/11/17 10:01:19;;;;;;;11.68;9.07;;;;;;;;;;5035597;28;20670;-56
2021/11/17 10:03:48;;;;;;;13.10;9.45;;;;;;;;;;5035169;28;20234;-56
2021/11/17 10:06:43;;;;;;;14.82;10.73;;;;;;;;;;5035173;28;20445;-56
2021/11/17 10:12:14;;;;;;;12.52;10.40;;;;;;;;;;5032676;28;20202;-56
2021/11/17 10:14:48;;;;;;;12.25;9.95;;;;;;;;;;5035289;28;20620;-56
2021/11/17 10:17:35;;;;;;;13.02;10.00;;;;;;;;;;5034795;28;20647;-58
2021/11/17 10:20:07;;;;;;;11.35;8.85;;;;;;;;;;5034870;28;20186;-57
2021/11/17 10:22:34;;;;;;;13.55;10.40;;;;;;;;;;5034779;28;20187;-57
2021/11/17 10:25:06;;;;;;;13.85;9.80;;;;;;;;;;5035799;28;20234;-56
2021/11/17 10:27:34;;;;;;;15.57;11.65;;;;;;;;;;5034672;28;20202;-56
2021/11/17 10:30:03;;;;;;;14.90;11.05;;;;;;;;;;5034572;28;20222;-57
2021/11/17 10:32:34;;;;;;;14.00;11.05;;;;;;;;;;5034822;28;20206;-57
2021/11/17 10:35:04;;;;;;;18.13;12.45;;;;;;;;;;5034559;28;20226;-58
2021/11/17 10:37:33;;;;;;;18.65;13.45;;;;;;;;;;5034357;28;20194;-57
2021/11/17 10:40:05;;;;;;;19.33;12.50;;;;;;;;;;5035461;28;20253;-57
2021/11/17 10:42:36;;;;;;;14.68;12.23;;;;;;;;;;5034427;28;20665;-58
2021/11/17 10:45:22;;;;;;;15.88;12.55;;;;;;;;;;5034576;28;20254;-57
2021/11/17 10:47:50;;;;;;;17.75;11.55;;;;;;;;;;5034328;28;20647;-58
2021/11/17 10:50:19;;;;;;;20.83;13.90;;;;;;;;;;5033813;28;20702;-57
2021/11/17 10:52:48;;;;;;;18.50;13.50;;;;;;;;;;5034502;28;20206;-57
2021/11/17 10:55:18;;;;;;;20.25;12.52;;;;;;;;;;5034111;28;20223;-57
2021/11/17 10:57:47;;;;;;;17.35;13.15;;;;;;;;;;5034211;28;20225;-57
2021/11/17 11:00:16;;;;;;;17.50;13.82;;;;;;;;;;5034064;28;20221;-57
2021/11/17 11:02:43;;;;;;;17.35;13.27;;;;;;;;;;5033790;28;20202;-58
2021/11/17 11:05:14;;;;;;;17.88;12.60;;;;;;;;;;5033940;28;20233;-57
2021/11/17 11:07:43;;;;;;;20.02;14.18;;;;;;;;;;5033760;28;20221;-57
2021/11/17 11:10:13;;;;;;;21.58;13.77;;;;;;;;;;5033986;28;20222;-56
2021/11/17 11:12:40;;;;;;;20.02;14.13;;;;;;;;;;5034306;28;20202;-56
2021/11/17 11:15:12;;;;;;;23.83;17.15;;;;;;;;;;5034229;28;20230;-56
2021/11/17 11:17:41;;;;;;;21.83;15.18;;;;;;;;;;5033219;28;20187;-57
2021/11/17 11:20:28;;;;;;;21.45;15.13;;;;;;;;;;5033422;28;20378;-54
2021/11/17 11:23:25;;;;;;;22.50;14.93;;;;;;;;;;5033208;28;20681;-57
2021/11/17 11:26:04;;;;;;;22.88;15.73;;;;;;;;;;4972251;28;20605;-56
2021/11/17 11:28:33;;;;;;;20.70;15.13;;;;;;;;;;5024181;28;20209;-56
2021/11/17 11:31:19;;;;;;;19.60;14.18;;;;;;;;;;5033030;28;20270;-56
2021/11/17 11:33:49;;;;;;;25.10;15.98;;;;;;;;;;5033465;28;20225;-57
2021/11/17 11:36:37;;;;;;;28.10;19.00;;;;;;;;;;5033167;28;20226;-58
2021/11/17 11:39:23;;;;;;;30.50;18.58;;;;;;;;;;5033231;28;20190;-57
2021/11/17 11:42:06;;;;;;;24.98;16.38;;;;;;;;;;5032973;28;20202;-57
2021/11/17 11:44:35;;;;;;;22.98;16.52;;;;;;;;;;5032924;28;20226;-56
2021/11/17 11:47:21;;;;;;;26.25;15.90;;;;;;;;;;5032899;28;20206;-57
2021/11/17 11:49:50;;;;;;;27.58;18.77;;;;;;;;;;5033511;28;20230;-56
2021/11/17 11:52:28;;;;;;;30.63;16.75;;;;;;;;;;5033582;28;20206;-56
2021/11/17 11:55:11;;;;;;;25.40;17.10;;;;;;;;;;5033079;28;20225;-56
2021/11/17 11:57:40;;;;;;;25.52;16.67;;;;;;;;;;5031177;28;20701;-56
2021/11/17 12:00:09;;;;;;;27.27;18.40;;;;;;;;;;5033067;28;20668;-55
2021/11/17 12:02:37;;;;;;;24.05;16.85;;;;;;;;;;5033012;28;20199;-57
2021/11/17 12:05:08;;;;;;;21.40;15.52;;;;;;;;;;5033023;28;20229;-56
2021/11/17 12:07:41;;;;;;;19.92;15.57;;;;;;;;;;5032955;28;20183;-56
2021/11/17 12:10:10;;;;;;;23.83;16.13;;;;;;;;;;5032749;28;20207;-55
2021/11/17 12:12:38;;;;;;;22.75;14.40;;;;;;;;;;5033124;28;20229;-57
2021/11/17 12:15:23;;;;;;;21.02;14.23;;;;;;;;;;5032839;28;20230;-55
2021/11/17 12:18:05;;;;;;;19.13;12.25;;;;;;;;;;5032792;28;20198;-56
2021/11/17 12:20:34;;;;;;;19.15;13.50;;;;;;;;;;5033126;28;20193;-57
2021/11/17 12:23:12;;;;;;;16.50;12.25;;;;;;;;;;5032591;28;20213;-55
2021/11/17 12:25:40;;;;;;;20.92;13.45;;;;;;;;;;5032998;28;20187;-57
2021/11/17 12:28:08;;;;;;;20.75;13.85;;;;;;;;;;5032624;28;20215;-56
2021/11/17 12:30:39;;;;;;;17.77;12.20;;;;;;;;;;5035933;28;20716;-56
2021/11/17 12:33:13;;;;;;;18.45;13.25;;;;;;;;;;5036874;28;20223;-57
2021/11/17 12:35:43;;;;;;;18.27;13.43;;;;;;;;;;5036597;28;20250;-58
2021/11/17 12:38:12;;;;;;;24.30;14.57;;;;;;;;;;5036355;28;20197;-57
2021/11/17 12:40:41;;;;;;;26.30;14.23;;;;;;;;;;5036703;28;20199;-57
2021/11/17 12:43:12;;;;;;;18.05;13.40;;;;;;;;;;5036212;28;20615;-57
2021/11/17 12:45:45;;;;;;;21.40;14.57;;;;;;;;;;5037299;28;20277;-55
2021/11/17 12:48:21;;;;;;;20.25;15.25;;;;;;;;;;5037102;28;20190;-57
2021/11/17 12:50:52;;;;;;;22.13;14.85;;;;;;;;;;5036652;28;20206;-56
2021/11/17 12:53:34;;;;;;;22.98;15.65;;;;;;;;;;5036354;28;20223;-57
2021/11/17 12:56:03;;;;;;;21.98;15.80;;;;;;;;;;5036267;28;20530;-57
2021/11/17 12:58:34;;;;;;;24.60;17.60;;;;;;;;;;5036166;28;20203;-57
2021/11/17 13:01:14;;;;;;;22.13;16.27;;;;;;;;;;5036025;28;20183;-57
2021/11/17 13:03:56;;;;;;;24.20;16.60;;;;;;;;;;5036450;28;20226;-57
2021/11/17 13:06:27;;;;;;;23.92;16.30;;;;;;;;;;5036544;28;20204;-57
2021/11/17 13:09:12;;;;;;;25.40;16.70;;;;;;;;;;5036359;28;20222;-56
2021/11/17 13:11:51;;;;;;;25.23;16.95;;;;;;;;;;5036094;28;20187;-56
2021/11/17 13:14:22;;;;;;;25.45;16.65;;;;;;;;;;5036082;28;20222;-56
2021/11/17 13:16:50;;;;;;;24.42;17.35;;;;;;;;;;5035696;28;20655;-57
2021/11/17 13:19:22;;;;;;;30.08;18.40;;;;;;;;;;5035695;28;20206;-56
2021/11/17 13:21:55;;;;;;;23.05;17.25;;;;;;;;;;5035873;28;20206;-55
2021/11/17 13:24:31;;;;;;;24.83;16.40;;;;;;;;;;5035373;28;20234;-57
2021/11/17 13:27:17;;;;;;;26.17;17.83;;;;;;;;;;5035689;28;20246;-56
2021/11/17 13:29:50;;;;;;;27.85;17.52;;;;;;;;;;5035320;28;20221;-57
2021/11/17 13:32:25;;;;;;;25.60;18.25;;;;;;;;;;5035786;28;20289;-56
2021/11/17 13:34:53;;;;;;;27.88;16.60;;;;;;;;;;5035297;28;20226;-56
2021/11/17 13:37:27;;;;;;;23.52;15.65;;;;;;;;;;5035457;28;20541;-55
2021/11/17 13:39:56;;;;;;;22.63;15.98;;;;;;;;;;5034936;28;20187;-57
2021/11/17 13:42:23;;;;;;;25.73;16.20;;;;;;;;;;5035405;28;20260;-56
2021/11/17 13:44:51;;;;;;;25.67;16.25;;;;;;;;;;5035503;28;20218;-57
2021/11/17 13:47:20;;;;;;;19.58;15.23;;;;;;;;;;5035231;28;20210;-57
2021/11/17 13:49:48;;;;;;;22.30;14.75;;;;;;;;;;5035042;28;20218;-57
2021/11/17 13:52:17;;;;;;;22.58;14.32;;;;;;;;;;5035317;28;20202;-57
2021/11/17 13:54:46;;;;;;;23.50;15.73;;;;;;;;;;5034916;28;20225;-57
2021/11/17 13:57:14;;;;;;;23.10;15.32;;;;;;;;;;5035123;28;20205;-57
2021/11/17 13:59:42;;;;;;;19.15;13.43;;;;;;;;;;5035334;28;20209;-57
2021/11/17 14:02:10;;;;;;;21.02;15.02;;;;;;;;;;5035012;28;20210;-56
2021/11/17 14:04:37;;;;;;;19.65;14.73;;;;;;;;;;5035032;28;20227;-56
2021/11/17 14:07:05;;;;;;;19.52;13.82;;;;;;;;;;5035065;28;20250;-57
2021/11/17 14:09:32;;;;;;;21.45;15.10;;;;;;;;;;5034801;28;20203;-57
2021/11/17 14:12:02;;;;;;;18.65;13.25;;;;;;;;;;5034835;28;20209;-57
2021/11/17 14:14:30;;;;;;;18.88;12.23;;;;;;;;;;5035582;28;20226;-57
2021/11/17 14:16:57;;;;;;;19.35;14.43;;;;;;;;;;5035299;28;20202;-56
2021/11/17 14:19:24;;;;;;;18.42;13.20;;;;;;;;;;5035287;28;20227;-55
2021/11/17 14:21:52;;;;;;;21.25;14.25;;;;;;;;;;5034695;28;20568;-55
2021/11/17 14:24:19;;;;;;;19.60;13.38;;;;;;;;;;5034477;28;20253;-57
2021/11/17 14:26:48;;;;;;;16.42;13.35;;;;;;;;;;5034528;28;20210;-58
2021/11/17 14:29:18;;;;;;;21.30;13.82;;;;;;;;;;5034253;28;20203;-58
2021/11/17 14:31:47;;;;;;;16.52;12.63;;;;;;;;;;5034419;28;20223;-57
2021/11/17 14:34:14;;;;;;;17.15;13.70;;;;;;;;;;5033969;28;20710;-58
2021/11/17 14:36:46;;;;;;;17.27;12.60;;;;;;;;;;5034087;28;20598;-58
2021/11/17 14:39:14;;;;;;;19.25;13.40;;;;;;;;;;5034268;28;20190;-58
2021/11/17 14:41:41;;;;;;;20.38;13.55;;;;;;;;;;5033604;28;20210;-57
2021/11/17 14:44:09;;;;;;;21.83;12.95;;;;;;;;;;5034030;28;20280;-57
2021/11/17 14:46:38;;;;;;;17.83;13.68;;;;;;;;;;5034056;28;20210;-55
2021/11/17 14:49:06;;;;;;;19.60;13.75;;;;;;;;;;5033654;28;20206;-57
2021/11/17 14:51:33;;;;;;;20.08;15.55;;;;;;;;;;5033261;28;20233;-56
2021/11/17 14:54:01;;;;;;;20.45;14.95;;;;;;;;;;5034008;28;20245;-57
2021/11/17 14:56:29;;;;;;;22.38;15.05;;;;;;;;;;5033982;28;20206;-56
2021/11/17 14:58:56;;;;;;;22.90;15.25;;;;;;;;;;5033510;28;20209;-58
2021/11/17 15:01:24;;;;;;;21.00;15.02;;;;;;;;;;5033656;28;20674;-56
2021/11/17 15:03:53;;;;;;;30.10;20.00;;;;;;;;;;5033454;28;20252;-57
2021/11/17 15:06:22;;;;;;;23.27;16.35;;;;;;;;;;5033606;28;20226;-57
2021/11/17 15:08:49;;;;;;;22.27;16.00;;;;;;;;;;5033651;28;20210;-57
2021/11/17 15:11:17;;;;;;;25.85;17.98;;;;;;;;;;5033726;28;20230;-57
2021/11/17 15:13:45;;;;;;;29.65;17.67;;;;;;;;;;5033640;28;20218;-56
2021/11/17 15:16:12;;;;;;;25.58;17.48;;;;;;;;;;5033793;28;20206;-57
2021/11/17 15:18:40;;;;;;;28.17;17.27;;;;;;;;;;5033747;28;20217;-55
2021/11/17 15:21:09;;;;;;;25.77;18.05;;;;;;;;;;5033354;28;20194;-55
2021/11/17 15:23:36;;;;;;;30.17;18.48;;;;;;;;;;5033518;28;20234;-56
2021/11/17 15:26:04;;;;;;;24.73;17.00;;;;;;;;;;5033502;28;20201;-57
2021/11/17 15:28:33;;;;;;;29.73;18.63;;;;;;;;;;5033113;28;20199;-57
2021/11/17 15:31:03;;;;;;;24.90;17.73;;;;;;;;;;5033497;28;20237;-57
2021/11/17 15:33:31;;;;;;;31.92;18.67;;;;;;;;;;5033371;28;20218;-57
2021/11/17 15:35:58;;;;;;;25.83;17.63;;;;;;;;;;5033598;28;20202;-58
2021/11/17 15:38:27;;;;;;;27.23;18.27;;;;;;;;;;5033680;28;20202;-57
2021/11/17 15:40:56;;;;;;;27.58;17.25;;;;;;;;;;5033544;28;20194;-57
2021/11/17 15:43:24;;;;;;;24.15;15.75;;;;;;;;;;5033448;28;20249;-57
2021/11/17 15:45:51;;;;;;;22.08;15.40;;;;;;;;;;5033115;28;20697;-56
2021/11/17 15:48:19;;;;;;;23.40;16.73;;;;;;;;;;5033135;28;20206;-58
2021/11/17 15:50:49;;;;;;;24.50;17.00;;;;;;;;;;5033054;28;20213;-57
2021/11/17 15:53:16;;;;;;;25.73;15.20;;;;;;;;;;5032840;28;20218;-57
2021/11/17 15:55:45;;;;;;;24.85;15.05;;;;;;;;;;5032899;28;20211;-57
2021/11/17 15:58:12;;;;;;;21.90;15.68;;;;;;;;;;5032929;28;20210;-57
2021/11/17 16:00:40;;;;;;;25.08;16.08;;;;;;;;;;5033131;28;20199;-57
2021/11/17 16:03:07;;;;;;;21.67;14.27;;;;;;;;;;5032476;28;20244;-57
2021/11/17 16:05:35;;;;;;;22.52;14.73;;;;;;;;;;5032566;28;20198;-57
2021/11/17 16:08:03;;;;;;;26.60;15.52;;;;;;;;;;5032651;28;20688;-57
2021/11/17 16:10:30;;;;;;;25.52;15.07;;;;;;;;;;5032899;28;20226;-57
2021/11/17 16:12:59;;;;;;;23.55;14.07;;;;;;;;;;5032876;28;20211;-57
2021/11/17 16:15:28;;;;;;;22.73;15.52;;;;;;;;;;5032424;28;20216;-57
2021/11/17 16:17:55;;;;;;;23.80;16.08;;;;;;;;;;5032724;28;20226;-57
2021/11/17 16:20:27;;;;;;;25.67;15.50;;;;;;;;;;5032643;28;20206;-57
2021/11/17 16:23:06;;;;;;;25.85;16.25;;;;;;;;;;5032614;28;20234;-58
2021/11/17 16:25:34;;;;;;;23.15;15.90;;;;;;;;;;5067062;22;20333;-54
2021/11/17 16:28:06;;;;;;;23.63;15.40;;;;;;;;;;5033208;28;20624;-55
2021/11/17 16:30:34;;;;;;;24.13;15.70;;;;;;;;;;5032702;28;20229;-54
2021/11/17 16:33:01;;;;;;;31.90;16.42;;;;;;;;;;5032860;28;20214;-55
2021/11/17 16:35:28;;;;;;;28.42;15.43;;;;;;;;;;5032322;28;20248;-55
2021/11/17 16:37:56;;;;;;;28.73;15.13;;;;;;;;;;5032589;28;20210;-55
2021/11/17 16:40:25;;;;;;;21.38;14.02;;;;;;;;;;5034058;28;20680;-57
2021/11/17 16:42:53;;;;;;;25.40;16.85;;;;;;;;;;5033530;28;20229;-56
2021/11/17 16:45:22;;;;;;;25.65;16.40;;;;;;;;;;5033672;28;20223;-55
2021/11/17 16:47:50;;;;;;;24.30;15.88;;;;;;;;;;5033098;28;20210;-55
2021/11/17 16:50:18;;;;;;;24.85;15.43;;;;;;;;;;5033311;28;20209;-55
2021/11/17 16:52:45;;;;;;;24.38;16.42;;;;;;;;;;5033880;28;20238;-53
2021/11/17 16:55:14;;;;;;;26.60;17.08;;;;;;;;;;5033684;28;20559;-56
2021/11/17 16:57:43;;;;;;;24.15;16.35;;;;;;;;;;5033189;28;20210;-53
2021/11/17 17:00:12;;;;;;;28.20;16.25;;;;;;;;;;5033480;28;20205;-56
2021/11/17 17:02:41;;;;;;;24.08;15.75;;;;;;;;;;5032605;28;20209;-54
2021/11/17 17:05:09;;;;;;;24.90;16.95;;;;;;;;;;5032483;28;20633;-55
2021/11/17 17:07:37;;;;;;;25.17;16.60;;;;;;;;;;5032633;28;20203;-55
2021/11/17 17:10:05;;;;;;;29.75;16.92;;;;;;;;;;5032642;28;20233;-56
2021/11/17 17:12:33;;;;;;;27.13;15.88;;;;;;;;;;5032474;28;20233;-55
2021/11/17 17:15:01;;;;;;;25.60;15.68;;;;;;;;;;5033660;28;20226;-55